sensor_id;sensor_type;location;lat;lon;timestamp;P1;durP1;ratioP1;P2;durP2;ratioP2
14191;SDS011;7177;48.572;7.838;2022-07-21T00:01:50;24.30;;;19.40;;
14191;SDS011;7177;48.572;7.838;2022-07-21T00:04:17;26.17;;;18.13;;
14191;SDS011;7177;48.572;7.838;2022-07-21T00:06:44;22.37;;;18.53;;
14191;SDS011;7177;48.572;7.838;2022-07-21T00:09:11;20.80;;;17.90;;
14191;SDS011;7177;48.572;7.838;2022-07-21T00:11:37;27.10;;;18.90;;
14191;SDS011;7177;48.572;7.838;2022-07-21T00:14:03;26.53;;;18.43;;
14191;SDS011;7177;48.572;7.838;2022-07-21T00:16:29;24.97;;;18.50;;
14191;SDS011;7177;48.572;7.838;2022-07-21T00:18:55;24.57;;;18.00;;
14191;SDS011;7177;48.572;7.838;2022-07-21T00:21:20;26.10;;;18.90;;
14191;SDS011;7177;48.572;7.838;2022-07-21T00:23:46;29.00;;;17.20;;
14191;SDS011;7177;48.572;7.838;2022-07-21T00:26:12;21.03;;;18.30;;
14191;SDS011;7177;48.572;7.838;2022-07-21T00:28:37;23.57;;;16.60;;
14191;SDS011;7177;48.572;7.838;2022-07-21T00:31:03;26.77;;;17.53;;
14191;SDS011;7177;48.572;7.838;2022-07-21T00:33:29;19.30;;;17.23;;
14191;SDS011;7177;48.572;7.838;2022-07-21T00:35:55;19.00;;;16.00;;
14191;SDS011;7177;48.572;7.838;2022-07-21T00:38:20;20.13;;;16.13;;
14191;SDS011;7177;48.572;7.838;2022-07-21T00:40:46;17.47;;;15.33;;
14191;SDS011;7177;48.572;7.838;2022-07-21T00:43:11;16.63;;;14.77;;
14191;SDS011;7177;48.572;7.838;2022-07-21T00:45:37;17.20;;;14.63;;
14191;SDS011;7177;48.572;7.838;2022-07-21T00:48:02;19.13;;;14.60;;
14191;SDS011;7177;48.572;7.838;2022-07-21T00:50:28;20.57;;;14.53;;
14191;SDS011;7177;48.572;7.838;2022-07-21T00:52:56;22.10;;;15.57;;
14191;SDS011;7177;48.572;7.838;2022-07-21T00:55:21;19.03;;;14.63;;
14191;SDS011;7177;48.572;7.838;2022-07-21T00:57:47;17.60;;;14.67;;
14191;SDS011;7177;48.572;7.838;2022-07-21T01:00:17;16.57;;;14.80;;
14191;SDS011;7177;48.572;7.838;2022-07-21T01:02:47;16.60;;;14.47;;
14191;SDS011;7177;48.572;7.838;2022-07-21T01:05:13;16.73;;;13.87;;
14191;SDS011;7177;48.572;7.838;2022-07-21T01:07:43;18.70;;;14.73;;
14191;SDS011;7177;48.572;7.838;2022-07-21T01:10:14;19.07;;;13.70;;
14191;SDS011;7177;48.572;7.838;2022-07-21T01:12:41;19.60;;;14.27;;
14191;SDS011;7177;48.572;7.838;2022-07-21T01:15:08;21.90;;;14.03;;
14191;SDS011;7177;48.572;7.838;2022-07-21T01:17:35;22.83;;;14.93;;
14191;SDS011;7177;48.572;7.838;2022-07-21T01:20:04;18.93;;;13.43;;
14191;SDS011;7177;48.572;7.838;2022-07-21T01:22:33;15.60;;;14.00;;
14191;SDS011;7177;48.572;7.838;2022-07-21T01:24:59;17.47;;;13.37;;
14191;SDS011;7177;48.572;7.838;2022-07-21T01:27:25;17.30;;;14.70;;
14191;SDS011;7177;48.572;7.838;2022-07-21T01:29:51;16.07;;;13.93;;
14191;SDS011;7177;48.572;7.838;2022-07-21T01:32:17;18.43;;;14.03;;
14191;SDS011;7177;48.572;7.838;2022-07-21T01:34:43;16.20;;;14.00;;
14191;SDS011;7177;48.572;7.838;2022-07-21T01:37:08;15.57;;;13.90;;
14191;SDS011;7177;48.572;7.838;2022-07-21T01:39:34;16.77;;;13.87;;
14191;SDS011;7177;48.572;7.838;2022-07-21T01:42:18;18.63;;;14.93;;
14191;SDS011;7177;48.572;7.838;2022-07-21T01:44:44;18.97;;;14.70;;
14191;SDS011;7177;48.572;7.838;2022-07-21T01:47:10;18.60;;;14.53;;
14191;SDS011;7177;48.572;7.838;2022-07-21T01:49:35;17.03;;;14.00;;
14191;SDS011;7177;48.572;7.838;2022-07-21T01:52:01;16.87;;;15.07;;
14191;SDS011;7177;48.572;7.838;2022-07-21T01:54:27;17.30;;;14.90;;
14191;SDS011;7177;48.572;7.838;2022-07-21T01:56:52;19.07;;;15.70;;
14191;SDS011;7177;48.572;7.838;2022-07-21T01:59:18;16.43;;;14.47;;
14191;SDS011;7177;48.572;7.838;2022-07-21T02:01:44;18.17;;;15.97;;
14191;SDS011;7177;48.572;7.838;2022-07-21T02:04:10;18.97;;;15.73;;
14191;SDS011;7177;48.572;7.838;2022-07-21T02:06:36;18.30;;;16.30;;
14191;SDS011;7177;48.572;7.838;2022-07-21T02:09:01;19.93;;;16.53;;
14191;SDS011;7177;48.572;7.838;2022-07-21T02:11:27;19.67;;;17.03;;
14191;SDS011;7177;48.572;7.838;2022-07-21T02:13:53;20.30;;;16.87;;
14191;SDS011;7177;48.572;7.838;2022-07-21T02:16:18;20.43;;;16.97;;
14191;SDS011;7177;48.572;7.838;2022-07-21T02:18:44;19.50;;;16.67;;
14191;SDS011;7177;48.572;7.838;2022-07-21T02:21:09;19.70;;;17.47;;
14191;SDS011;7177;48.572;7.838;2022-07-21T02:23:35;22.73;;;17.47;;
14191;SDS011;7177;48.572;7.838;2022-07-21T02:26:01;20.80;;;17.73;;
14191;SDS011;7177;48.572;7.838;2022-07-21T02:28:27;21.17;;;17.27;;
14191;SDS011;7177;48.572;7.838;2022-07-21T02:30:53;21.00;;;17.30;;
14191;SDS011;7177;48.572;7.838;2022-07-21T02:33:19;21.13;;;16.00;;
14191;SDS011;7177;48.572;7.838;2022-07-21T02:35:45;22.30;;;18.03;;
14191;SDS011;7177;48.572;7.838;2022-07-21T02:38:11;22.00;;;18.03;;
14191;SDS011;7177;48.572;7.838;2022-07-21T02:40:36;24.53;;;16.67;;
14191;SDS011;7177;48.572;7.838;2022-07-21T02:43:03;21.40;;;17.33;;
14191;SDS011;7177;48.572;7.838;2022-07-21T02:45:30;21.53;;;17.27;;
14191;SDS011;7177;48.572;7.838;2022-07-21T02:48:03;21.33;;;16.90;;
14191;SDS011;7177;48.572;7.838;2022-07-21T02:50:31;20.17;;;15.80;;
14191;SDS011;7177;48.572;7.838;2022-07-21T02:52:59;19.43;;;15.80;;
14191;SDS011;7177;48.572;7.838;2022-07-21T02:55:26;17.27;;;15.37;;
14191;SDS011;7177;48.572;7.838;2022-07-21T02:58:02;17.47;;;13.70;;
14191;SDS011;7177;48.572;7.838;2022-07-21T03:00:29;16.60;;;13.67;;
14191;SDS011;7177;48.572;7.838;2022-07-21T03:02:54;17.77;;;13.57;;
14191;SDS011;7177;48.572;7.838;2022-07-21T03:05:20;14.33;;;12.57;;
14191;SDS011;7177;48.572;7.838;2022-07-21T03:07:45;15.93;;;12.30;;
14191;SDS011;7177;48.572;7.838;2022-07-21T03:10:11;17.03;;;12.40;;
14191;SDS011;7177;48.572;7.838;2022-07-21T03:12:36;20.87;;;14.33;;
14191;SDS011;7177;48.572;7.838;2022-07-21T03:15:02;22.57;;;17.47;;
14191;SDS011;7177;48.572;7.838;2022-07-21T03:17:27;19.30;;;16.23;;
14191;SDS011;7177;48.572;7.838;2022-07-21T03:19:53;24.73;;;18.30;;
14191;SDS011;7177;48.572;7.838;2022-07-21T03:22:18;23.43;;;17.50;;
14191;SDS011;7177;48.572;7.838;2022-07-21T03:24:44;21.00;;;16.60;;
14191;SDS011;7177;48.572;7.838;2022-07-21T03:27:09;26.87;;;17.13;;
14191;SDS011;7177;48.572;7.838;2022-07-21T03:29:35;25.53;;;17.57;;
14191;SDS011;7177;48.572;7.838;2022-07-21T03:32:01;19.50;;;16.77;;
14191;SDS011;7177;48.572;7.838;2022-07-21T03:34:26;21.50;;;16.00;;
14191;SDS011;7177;48.572;7.838;2022-07-21T03:36:52;19.73;;;14.63;;
14191;SDS011;7177;48.572;7.838;2022-07-21T03:39:17;20.53;;;15.30;;
14191;SDS011;7177;48.572;7.838;2022-07-21T03:41:43;20.90;;;15.87;;
14191;SDS011;7177;48.572;7.838;2022-07-21T03:44:08;22.23;;;16.27;;
14191;SDS011;7177;48.572;7.838;2022-07-21T03:46:34;22.50;;;15.97;;
14191;SDS011;7177;48.572;7.838;2022-07-21T03:48:59;22.97;;;17.67;;
14191;SDS011;7177;48.572;7.838;2022-07-21T03:51:25;23.27;;;16.33;;
14191;SDS011;7177;48.572;7.838;2022-07-21T03:53:50;22.00;;;16.40;;
14191;SDS011;7177;48.572;7.838;2022-07-21T03:56:16;18.87;;;15.30;;
14191;SDS011;7177;48.572;7.838;2022-07-21T03:58:41;18.77;;;15.60;;
14191;SDS011;7177;48.572;7.838;2022-07-21T04:01:07;17.33;;;14.83;;
14191;SDS011;7177;48.572;7.838;2022-07-21T04:03:32;19.03;;;15.60;;
14191;SDS011;7177;48.572;7.838;2022-07-21T04:06:00;23.67;;;17.27;;
14191;SDS011;7177;48.572;7.838;2022-07-21T04:08:25;22.53;;;16.30;;
14191;SDS011;7177;48.572;7.838;2022-07-21T04:10:51;22.90;;;15.70;;
14191;SDS011;7177;48.572;7.838;2022-07-21T04:13:17;27.63;;;17.50;;
14191;SDS011;7177;48.572;7.838;2022-07-21T04:15:42;20.53;;;16.40;;
14191;SDS011;7177;48.572;7.838;2022-07-21T04:18:08;19.60;;;14.27;;
14191;SDS011;7177;48.572;7.838;2022-07-21T04:20:34;20.70;;;16.57;;
14191;SDS011;7177;48.572;7.838;2022-07-21T04:23:00;21.70;;;16.47;;
14191;SDS011;7177;48.572;7.838;2022-07-21T04:25:25;20.70;;;15.07;;
14191;SDS011;7177;48.572;7.838;2022-07-21T04:27:51;17.73;;;14.50;;
14191;SDS011;7177;48.572;7.838;2022-07-21T04:30:21;18.63;;;15.17;;
14191;SDS011;7177;48.572;7.838;2022-07-21T04:32:47;23.60;;;17.13;;
14191;SDS011;7177;48.572;7.838;2022-07-21T04:35:13;21.27;;;15.80;;
14191;SDS011;7177;48.572;7.838;2022-07-21T04:37:40;18.03;;;14.70;;
14191;SDS011;7177;48.572;7.838;2022-07-21T04:40:06;18.47;;;15.30;;
14191;SDS011;7177;48.572;7.838;2022-07-21T04:42:34;24.60;;;18.37;;
14191;SDS011;7177;48.572;7.838;2022-07-21T04:45:00;20.03;;;15.67;;
14191;SDS011;7177;48.572;7.838;2022-07-21T04:47:25;18.53;;;15.23;;
14191;SDS011;7177;48.572;7.838;2022-07-21T04:49:51;25.93;;;16.03;;
14191;SDS011;7177;48.572;7.838;2022-07-21T04:52:17;26.27;;;17.13;;
14191;SDS011;7177;48.572;7.838;2022-07-21T04:54:42;19.83;;;16.37;;
14191;SDS011;7177;48.572;7.838;2022-07-21T04:57:08;19.47;;;15.70;;
14191;SDS011;7177;48.572;7.838;2022-07-21T04:59:34;17.53;;;14.37;;
14191;SDS011;7177;48.572;7.838;2022-07-21T05:02:01;17.73;;;13.33;;
14191;SDS011;7177;48.572;7.838;2022-07-21T05:04:27;22.03;;;16.80;;
14191;SDS011;7177;48.572;7.838;2022-07-21T05:06:53;19.90;;;16.90;;
14191;SDS011;7177;48.572;7.838;2022-07-21T05:09:19;21.43;;;17.17;;
14191;SDS011;7177;48.572;7.838;2022-07-21T05:11:44;21.73;;;17.80;;
14191;SDS011;7177;48.572;7.838;2022-07-21T05:14:10;21.80;;;17.83;;
14191;SDS011;7177;48.572;7.838;2022-07-21T05:16:36;22.57;;;15.63;;
14191;SDS011;7177;48.572;7.838;2022-07-21T05:19:01;21.73;;;17.50;;
14191;SDS011;7177;48.572;7.838;2022-07-21T05:21:27;25.87;;;17.33;;
14191;SDS011;7177;48.572;7.838;2022-07-21T05:23:52;20.33;;;17.23;;
14191;SDS011;7177;48.572;7.838;2022-07-21T05:26:18;27.73;;;17.73;;
14191;SDS011;7177;48.572;7.838;2022-07-21T05:28:44;18.17;;;16.03;;
14191;SDS011;7177;48.572;7.838;2022-07-21T05:31:09;19.57;;;15.83;;
14191;SDS011;7177;48.572;7.838;2022-07-21T05:33:35;22.00;;;16.17;;
14191;SDS011;7177;48.572;7.838;2022-07-21T05:36:01;25.77;;;18.87;;
14191;SDS011;7177;48.572;7.838;2022-07-21T05:38:30;21.87;;;17.60;;
14191;SDS011;7177;48.572;7.838;2022-07-21T05:40:56;22.70;;;18.53;;
14191;SDS011;7177;48.572;7.838;2022-07-21T05:43:24;26.13;;;17.87;;
14191;SDS011;7177;48.572;7.838;2022-07-21T05:45:50;21.97;;;17.27;;
14191;SDS011;7177;48.572;7.838;2022-07-21T05:48:16;22.70;;;17.30;;
14191;SDS011;7177;48.572;7.838;2022-07-21T05:50:42;20.10;;;16.33;;
14191;SDS011;7177;48.572;7.838;2022-07-21T05:53:08;23.87;;;18.07;;
14191;SDS011;7177;48.572;7.838;2022-07-21T05:55:33;20.77;;;16.37;;
14191;SDS011;7177;48.572;7.838;2022-07-21T05:57:59;25.10;;;19.90;;
14191;SDS011;7177;48.572;7.838;2022-07-21T06:00:24;23.70;;;19.20;;
14191;SDS011;7177;48.572;7.838;2022-07-21T06:02:50;21.60;;;19.10;;
14191;SDS011;7177;48.572;7.838;2022-07-21T06:05:15;27.17;;;20.53;;
14191;SDS011;7177;48.572;7.838;2022-07-21T06:07:41;28.73;;;22.60;;
14191;SDS011;7177;48.572;7.838;2022-07-21T06:10:07;24.97;;;21.93;;
14191;SDS011;7177;48.572;7.838;2022-07-21T06:12:33;28.77;;;24.33;;
14191;SDS011;7177;48.572;7.838;2022-07-21T06:14:59;27.90;;;22.67;;
14191;SDS011;7177;48.572;7.838;2022-07-21T06:17:24;26.27;;;23.13;;
14191;SDS011;7177;48.572;7.838;2022-07-21T06:19:50;27.73;;;22.67;;
14191;SDS011;7177;48.572;7.838;2022-07-21T06:22:15;27.33;;;22.33;;
14191;SDS011;7177;48.572;7.838;2022-07-21T06:24:41;26.17;;;21.43;;
14191;SDS011;7177;48.572;7.838;2022-07-21T06:27:07;25.07;;;21.50;;
14191;SDS011;7177;48.572;7.838;2022-07-21T06:29:33;26.50;;;20.80;;
14191;SDS011;7177;48.572;7.838;2022-07-21T06:31:58;24.80;;;19.93;;
14191;SDS011;7177;48.572;7.838;2022-07-21T06:34:24;26.07;;;19.53;;
14191;SDS011;7177;48.572;7.838;2022-07-21T06:36:49;21.07;;;18.37;;
14191;SDS011;7177;48.572;7.838;2022-07-21T06:39:15;22.33;;;18.27;;
14191;SDS011;7177;48.572;7.838;2022-07-21T06:41:40;21.60;;;17.83;;
14191;SDS011;7177;48.572;7.838;2022-07-21T06:44:06;22.80;;;19.13;;
14191;SDS011;7177;48.572;7.838;2022-07-21T06:46:35;22.57;;;19.10;;
14191;SDS011;7177;48.572;7.838;2022-07-21T06:49:01;22.23;;;18.07;;
14191;SDS011;7177;48.572;7.838;2022-07-21T06:51:27;21.63;;;18.20;;
14191;SDS011;7177;48.572;7.838;2022-07-21T06:53:52;19.83;;;17.73;;
14191;SDS011;7177;48.572;7.838;2022-07-21T06:56:18;20.07;;;15.77;;
14191;SDS011;7177;48.572;7.838;2022-07-21T06:58:44;18.57;;;15.90;;
14191;SDS011;7177;48.572;7.838;2022-07-21T07:01:10;20.40;;;16.23;;
14191;SDS011;7177;48.572;7.838;2022-07-21T07:03:36;17.77;;;15.87;;
14191;SDS011;7177;48.572;7.838;2022-07-21T07:06:02;20.93;;;16.50;;
14191;SDS011;7177;48.572;7.838;2022-07-21T07:08:28;17.67;;;15.77;;
14191;SDS011;7177;48.572;7.838;2022-07-21T07:10:57;25.30;;;16.50;;
14191;SDS011;7177;48.572;7.838;2022-07-21T07:13:22;20.80;;;17.03;;
14191;SDS011;7177;48.572;7.838;2022-07-21T07:15:48;15.70;;;14.07;;
14191;SDS011;7177;48.572;7.838;2022-07-21T07:18:13;18.73;;;15.17;;
14191;SDS011;7177;48.572;7.838;2022-07-21T07:20:39;18.73;;;15.23;;
14191;SDS011;7177;48.572;7.838;2022-07-21T07:23:05;18.43;;;15.00;;
14191;SDS011;7177;48.572;7.838;2022-07-21T07:25:30;17.70;;;15.40;;
14191;SDS011;7177;48.572;7.838;2022-07-21T07:27:56;19.63;;;14.63;;
14191;SDS011;7177;48.572;7.838;2022-07-21T07:30:22;19.33;;;15.73;;
14191;SDS011;7177;48.572;7.838;2022-07-21T07:32:48;18.17;;;14.33;;
14191;SDS011;7177;48.572;7.838;2022-07-21T07:35:14;14.83;;;13.33;;
14191;SDS011;7177;48.572;7.838;2022-07-21T07:37:41;17.93;;;15.00;;
14191;SDS011;7177;48.572;7.838;2022-07-21T07:40:09;14.07;;;12.67;;
14191;SDS011;7177;48.572;7.838;2022-07-21T07:42:37;16.03;;;13.03;;
14191;SDS011;7177;48.572;7.838;2022-07-21T07:45:04;14.43;;;12.90;;
14191;SDS011;7177;48.572;7.838;2022-07-21T07:47:31;15.87;;;13.23;;
14191;SDS011;7177;48.572;7.838;2022-07-21T07:49:57;14.93;;;11.80;;
14191;SDS011;7177;48.572;7.838;2022-07-21T07:52:23;15.50;;;13.03;;
14191;SDS011;7177;48.572;7.838;2022-07-21T07:54:49;14.67;;;12.07;;
14191;SDS011;7177;48.572;7.838;2022-07-21T07:57:14;13.07;;;10.53;;
14191;SDS011;7177;48.572;7.838;2022-07-21T07:59:40;14.70;;;10.83;;
14191;SDS011;7177;48.572;7.838;2022-07-21T08:02:05;13.73;;;10.90;;
14191;SDS011;7177;48.572;7.838;2022-07-21T08:04:31;14.43;;;11.87;;
14191;SDS011;7177;48.572;7.838;2022-07-21T08:06:56;13.57;;;11.03;;
14191;SDS011;7177;48.572;7.838;2022-07-21T08:09:22;15.17;;;12.90;;
14191;SDS011;7177;48.572;7.838;2022-07-21T08:11:48;20.30;;;12.80;;
14191;SDS011;7177;48.572;7.838;2022-07-21T08:14:15;13.13;;;11.73;;
14191;SDS011;7177;48.572;7.838;2022-07-21T08:16:41;11.90;;;10.47;;
14191;SDS011;7177;48.572;7.838;2022-07-21T08:19:07;11.13;;;9.87;;
14191;SDS011;7177;48.572;7.838;2022-07-21T08:21:32;10.97;;;8.67;;
14191;SDS011;7177;48.572;7.838;2022-07-21T08:23:59;13.53;;;8.60;;
14191;SDS011;7177;48.572;7.838;2022-07-21T08:26:25;12.87;;;8.43;;
14191;SDS011;7177;48.572;7.838;2022-07-21T08:28:51;12.97;;;8.30;;
14191;SDS011;7177;48.572;7.838;2022-07-21T08:31:18;9.23;;;7.47;;
14191;SDS011;7177;48.572;7.838;2022-07-21T08:33:43;11.37;;;6.87;;
14191;SDS011;7177;48.572;7.838;2022-07-21T08:36:09;9.73;;;7.43;;
14191;SDS011;7177;48.572;7.838;2022-07-21T08:38:35;8.80;;;7.40;;
14191;SDS011;7177;48.572;7.838;2022-07-21T08:41:01;10.50;;;7.23;;
14191;SDS011;7177;48.572;7.838;2022-07-21T08:43:26;8.90;;;7.40;;
14191;SDS011;7177;48.572;7.838;2022-07-21T08:45:52;8.73;;;7.03;;
14191;SDS011;7177;48.572;7.838;2022-07-21T08:48:21;12.97;;;8.33;;
14191;SDS011;7177;48.572;7.838;2022-07-21T08:50:49;10.37;;;8.27;;
14191;SDS011;7177;48.572;7.838;2022-07-21T08:53:14;11.17;;;8.30;;
14191;SDS011;7177;48.572;7.838;2022-07-21T08:55:40;10.77;;;8.10;;
14191;SDS011;7177;48.572;7.838;2022-07-21T08:58:07;9.27;;;7.93;;
14191;SDS011;7177;48.572;7.838;2022-07-21T09:00:34;9.40;;;7.47;;
14191;SDS011;7177;48.572;7.838;2022-07-21T09:06:00;6.67;;;5.87;;
14191;SDS011;7177;48.572;7.838;2022-07-21T09:08:39;7.70;;;6.30;;
14191;SDS011;7177;48.572;7.838;2022-07-21T09:13:41;8.27;;;6.43;;
14191;SDS011;7177;48.572;7.838;2022-07-21T09:16:08;10.50;;;6.90;;
14191;SDS011;7177;48.572;7.838;2022-07-21T09:18:34;9.80;;;6.87;;
14191;SDS011;7177;48.572;7.838;2022-07-21T09:21:10;10.53;;;6.80;;
14191;SDS011;7177;48.572;7.838;2022-07-21T09:23:36;8.90;;;6.13;;
14191;SDS011;7177;48.572;7.838;2022-07-21T09:26:01;6.67;;;5.97;;
14191;SDS011;7177;48.572;7.838;2022-07-21T09:28:29;9.70;;;6.60;;
14191;SDS011;7177;48.572;7.838;2022-07-21T09:30:59;7.70;;;6.27;;
14191;SDS011;7177;48.572;7.838;2022-07-21T09:33:43;6.77;;;6.00;;
14191;SDS011;7177;48.572;7.838;2022-07-21T09:36:11;6.13;;;5.53;;
14191;SDS011;7177;48.572;7.838;2022-07-21T09:38:42;7.30;;;5.60;;
14191;SDS011;7177;48.572;7.838;2022-07-21T09:41:12;6.03;;;5.43;;
14191;SDS011;7177;48.572;7.838;2022-07-21T09:43:46;6.97;;;5.50;;
14191;SDS011;7177;48.572;7.838;2022-07-21T09:48:50;7.40;;;5.03;;
14191;SDS011;7177;48.572;7.838;2022-07-21T09:51:33;6.60;;;5.50;;
14191;SDS011;7177;48.572;7.838;2022-07-21T09:56:33;5.97;;;5.37;;
14191;SDS011;7177;48.572;7.838;2022-07-21T09:59:00;7.17;;;5.37;;
14191;SDS011;7177;48.572;7.838;2022-07-21T10:01:27;6.33;;;5.00;;
14191;SDS011;7177;48.572;7.838;2022-07-21T10:03:54;5.83;;;5.27;;
14191;SDS011;7177;48.572;7.838;2022-07-21T10:06:28;7.57;;;5.67;;
14191;SDS011;7177;48.572;7.838;2022-07-21T10:08:56;6.23;;;4.93;;
14191;SDS011;7177;48.572;7.838;2022-07-21T10:11:23;7.40;;;5.40;;
14191;SDS011;7177;48.572;7.838;2022-07-21T10:13:50;5.77;;;5.17;;
14191;SDS011;7177;48.572;7.838;2022-07-21T10:16:15;5.60;;;5.10;;
14191;SDS011;7177;48.572;7.838;2022-07-21T10:21:27;4.50;;;4.10;;
14191;SDS011;7177;48.572;7.838;2022-07-21T10:24:00;4.83;;;4.00;;
14191;SDS011;7177;48.572;7.838;2022-07-21T10:26:26;7.50;;;4.27;;
14191;SDS011;7177;48.572;7.838;2022-07-21T10:28:52;5.67;;;4.23;;
14191;SDS011;7177;48.572;7.838;2022-07-21T10:31:24;4.57;;;4.17;;
14191;SDS011;7177;48.572;7.838;2022-07-21T10:33:53;5.27;;;4.23;;
14191;SDS011;7177;48.572;7.838;2022-07-21T10:41:44;6.50;;;4.37;;
14191;SDS011;7177;48.572;7.838;2022-07-21T10:46:59;3.43;;;3.13;;
14191;SDS011;7177;48.572;7.838;2022-07-21T10:50:14;4.90;;;3.47;;
14191;SDS011;7177;48.572;7.838;2022-07-21T10:57:39;5.63;;;3.50;;
14191;SDS011;7177;48.572;7.838;2022-07-21T11:00:16;3.20;;;2.90;;
14191;SDS011;7177;48.572;7.838;2022-07-21T11:02:44;5.60;;;3.40;;
14191;SDS011;7177;48.572;7.838;2022-07-21T11:05:12;5.47;;;3.40;;
14191;SDS011;7177;48.572;7.838;2022-07-21T11:10:43;3.60;;;3.20;;
14191;SDS011;7177;48.572;7.838;2022-07-21T11:13:16;13.57;;;3.23;;
14191;SDS011;7177;48.572;7.838;2022-07-21T11:15:55;4.67;;;3.00;;
14191;SDS011;7177;48.572;7.838;2022-07-21T11:18:27;6.23;;;3.10;;
14191;SDS011;7177;48.572;7.838;2022-07-21T11:21:09;4.67;;;3.10;;
14191;SDS011;7177;48.572;7.838;2022-07-21T11:23:37;5.53;;;3.17;;
14191;SDS011;7177;48.572;7.838;2022-07-21T11:26:08;5.47;;;3.60;;
14191;SDS011;7177;48.572;7.838;2022-07-21T11:28:34;4.70;;;3.17;;
14191;SDS011;7177;48.572;7.838;2022-07-21T11:33:32;4.93;;;3.30;;
14191;SDS011;7177;48.572;7.838;2022-07-21T11:36:00;3.77;;;3.20;;
14191;SDS011;7177;48.572;7.838;2022-07-21T11:38:25;4.27;;;3.33;;
14191;SDS011;7177;48.572;7.838;2022-07-21T11:40:51;4.33;;;3.23;;
14191;SDS011;7177;48.572;7.838;2022-07-21T11:43:16;6.43;;;3.57;;
14191;SDS011;7177;48.572;7.838;2022-07-21T11:45:51;3.30;;;3.00;;
14191;SDS011;7177;48.572;7.838;2022-07-21T11:48:31;3.63;;;3.27;;
14191;SDS011;7177;48.572;7.838;2022-07-21T11:51:01;4.13;;;3.40;;
14191;SDS011;7177;48.572;7.838;2022-07-21T11:53:27;4.57;;;3.23;;
14191;SDS011;7177;48.572;7.838;2022-07-21T11:55:53;6.13;;;3.40;;
14191;SDS011;7177;48.572;7.838;2022-07-21T11:58:19;4.40;;;3.50;;
14191;SDS011;7177;48.572;7.838;2022-07-21T12:00:45;3.97;;;3.37;;
14191;SDS011;7177;48.572;7.838;2022-07-21T12:03:11;5.23;;;3.73;;
14191;SDS011;7177;48.572;7.838;2022-07-21T12:05:38;3.67;;;3.37;;
14191;SDS011;7177;48.572;7.838;2022-07-21T12:08:04;3.77;;;3.30;;
14191;SDS011;7177;48.572;7.838;2022-07-21T12:10:30;3.47;;;3.10;;
14191;SDS011;7177;48.572;7.838;2022-07-21T12:13:03;3.40;;;3.00;;
14191;SDS011;7177;48.572;7.838;2022-07-21T12:15:31;3.27;;;2.97;;
14191;SDS011;7177;48.572;7.838;2022-07-21T12:18:01;4.30;;;3.37;;
14191;SDS011;7177;48.572;7.838;2022-07-21T12:20:30;3.90;;;3.07;;
14191;SDS011;7177;48.572;7.838;2022-07-21T12:22:58;4.40;;;3.40;;
14191;SDS011;7177;48.572;7.838;2022-07-21T12:25:43;5.30;;;3.13;;
14191;SDS011;7177;48.572;7.838;2022-07-21T12:28:09;4.63;;;2.90;;
14191;SDS011;7177;48.572;7.838;2022-07-21T12:30:44;4.33;;;2.83;;
14191;SDS011;7177;48.572;7.838;2022-07-21T12:33:12;5.17;;;3.17;;
14191;SDS011;7177;48.572;7.838;2022-07-21T12:35:59;3.13;;;2.83;;
14191;SDS011;7177;48.572;7.838;2022-07-21T12:38:37;7.60;;;3.23;;
14191;SDS011;7177;48.572;7.838;2022-07-21T12:41:08;3.23;;;2.93;;
14191;SDS011;7177;48.572;7.838;2022-07-21T12:43:35;5.33;;;3.00;;
14191;SDS011;7177;48.572;7.838;2022-07-21T12:46:13;3.50;;;3.00;;
14191;SDS011;7177;48.572;7.838;2022-07-21T12:48:42;3.87;;;3.10;;
14191;SDS011;7177;48.572;7.838;2022-07-21T12:51:15;4.07;;;3.20;;
14191;SDS011;7177;48.572;7.838;2022-07-21T12:56:14;7.83;;;3.10;;
14191;SDS011;7177;48.572;7.838;2022-07-21T12:58:43;6.13;;;3.30;;
14191;SDS011;7177;48.572;7.838;2022-07-21T13:01:09;4.13;;;3.47;;
14191;SDS011;7177;48.572;7.838;2022-07-21T13:03:35;4.23;;;3.07;;
14191;SDS011;7177;48.572;7.838;2022-07-21T13:06:02;3.20;;;2.90;;
14191;SDS011;7177;48.572;7.838;2022-07-21T13:08:30;2.90;;;2.70;;
14191;SDS011;7177;48.572;7.838;2022-07-21T13:10:56;4.27;;;3.20;;
14191;SDS011;7177;48.572;7.838;2022-07-21T13:13:22;4.50;;;3.37;;
14191;SDS011;7177;48.572;7.838;2022-07-21T13:15:48;3.40;;;2.80;;
14191;SDS011;7177;48.572;7.838;2022-07-21T13:18:14;4.70;;;3.63;;
14191;SDS011;7177;48.572;7.838;2022-07-21T13:20:39;3.73;;;3.33;;
14191;SDS011;7177;48.572;7.838;2022-07-21T13:23:05;3.43;;;2.90;;
14191;SDS011;7177;48.572;7.838;2022-07-21T13:25:31;4.07;;;3.17;;
14191;SDS011;7177;48.572;7.838;2022-07-21T13:27:56;4.73;;;3.13;;
14191;SDS011;7177;48.572;7.838;2022-07-21T13:30:22;4.37;;;3.07;;
14191;SDS011;7177;48.572;7.838;2022-07-21T13:32:48;6.83;;;4.33;;
14191;SDS011;7177;48.572;7.838;2022-07-21T13:35:13;7.40;;;3.57;;
14191;SDS011;7177;48.572;7.838;2022-07-21T13:37:39;5.63;;;3.73;;
14191;SDS011;7177;48.572;7.838;2022-07-21T13:40:05;4.47;;;3.17;;
14191;SDS011;7177;48.572;7.838;2022-07-21T13:42:31;4.00;;;3.30;;
14191;SDS011;7177;48.572;7.838;2022-07-21T13:44:56;4.40;;;3.27;;
14191;SDS011;7177;48.572;7.838;2022-07-21T13:47:22;4.83;;;3.47;;
14191;SDS011;7177;48.572;7.838;2022-07-21T13:49:48;3.73;;;3.40;;
14191;SDS011;7177;48.572;7.838;2022-07-21T13:52:13;3.60;;;3.13;;
14191;SDS011;7177;48.572;7.838;2022-07-21T13:54:39;5.13;;;3.40;;
14191;SDS011;7177;48.572;7.838;2022-07-21T13:57:04;4.17;;;3.67;;
14191;SDS011;7177;48.572;7.838;2022-07-21T13:59:30;3.73;;;3.27;;
14191;SDS011;7177;48.572;7.838;2022-07-21T14:01:56;3.53;;;3.10;;
14191;SDS011;7177;48.572;7.838;2022-07-21T14:04:22;4.53;;;3.30;;
14191;SDS011;7177;48.572;7.838;2022-07-21T14:06:47;4.73;;;3.20;;
14191;SDS011;7177;48.572;7.838;2022-07-21T14:09:14;4.90;;;2.93;;
14191;SDS011;7177;48.572;7.838;2022-07-21T14:11:43;4.43;;;3.20;;
14191;SDS011;7177;48.572;7.838;2022-07-21T14:14:09;3.10;;;2.80;;
14191;SDS011;7177;48.572;7.838;2022-07-21T14:16:40;4.30;;;3.90;;
14191;SDS011;7177;48.572;7.838;2022-07-21T14:19:06;3.43;;;3.10;;
14191;SDS011;7177;48.572;7.838;2022-07-21T14:21:31;3.77;;;3.33;;
14191;SDS011;7177;48.572;7.838;2022-07-21T14:23:57;6.00;;;3.53;;
14191;SDS011;7177;48.572;7.838;2022-07-21T14:26:41;4.47;;;3.37;;
14191;SDS011;7177;48.572;7.838;2022-07-21T14:29:06;4.03;;;3.13;;
14191;SDS011;7177;48.572;7.838;2022-07-21T14:31:32;3.70;;;3.27;;
14191;SDS011;7177;48.572;7.838;2022-07-21T14:33:57;4.57;;;3.40;;
14191;SDS011;7177;48.572;7.838;2022-07-21T14:36:23;6.20;;;3.83;;
14191;SDS011;7177;48.572;7.838;2022-07-21T14:38:48;5.37;;;3.40;;
14191;SDS011;7177;48.572;7.838;2022-07-21T14:41:14;4.67;;;3.20;;
14191;SDS011;7177;48.572;7.838;2022-07-21T14:43:40;5.27;;;3.40;;
14191;SDS011;7177;48.572;7.838;2022-07-21T14:46:05;3.67;;;3.37;;
14191;SDS011;7177;48.572;7.838;2022-07-21T14:48:31;3.33;;;3.03;;
14191;SDS011;7177;48.572;7.838;2022-07-21T14:50:57;4.80;;;3.47;;
14191;SDS011;7177;48.572;7.838;2022-07-21T14:53:23;4.40;;;3.07;;
14191;SDS011;7177;48.572;7.838;2022-07-21T14:55:49;3.73;;;3.03;;
14191;SDS011;7177;48.572;7.838;2022-07-21T14:58:14;4.60;;;3.70;;
14191;SDS011;7177;48.572;7.838;2022-07-21T15:00:40;6.03;;;3.67;;
14191;SDS011;7177;48.572;7.838;2022-07-21T15:03:06;3.90;;;3.43;;
14191;SDS011;7177;48.572;7.838;2022-07-21T15:05:32;5.67;;;3.80;;
14191;SDS011;7177;48.572;7.838;2022-07-21T15:07:57;4.53;;;3.47;;
14191;SDS011;7177;48.572;7.838;2022-07-21T15:10:23;5.33;;;3.50;;
14191;SDS011;7177;48.572;7.838;2022-07-21T15:12:48;5.43;;;3.40;;
14191;SDS011;7177;48.572;7.838;2022-07-21T15:15:14;6.13;;;3.20;;
14191;SDS011;7177;48.572;7.838;2022-07-21T15:17:40;4.37;;;3.63;;
14191;SDS011;7177;48.572;7.838;2022-07-21T15:20:06;5.20;;;4.37;;